Niklas Krause

Recruteur - Union Berlin
20 Nov 2027
Samedi
Processus

Personnalité

Adaptabilité (16) Ambition (17) Controverse (13) Loyauté (17) Pression (6) Professionnalisme (18) Sportivité (13) Tempérament (2)

Profil

Style d'entraînement Démocratique
Diplôme National A
Détermination 11
Gestion des joueurs 10
Motivation 10
Discipline 13
Satisfaction professionnelle
100%
Fatigue
0%
Rôle Recruteur
Salaire 20.8K p/s
Contrat 14.03.2030

Performance

Comportement Bon
Efficacité de l'entraînement
46%
Développement des joueurs
50%
Prévention des blessures
45%
Mise en place tactique
30%

Événements récents

A participé à une réunion de recrutement maintenant
A participé à une réunion de recrutement maintenant
A recommandé une cible de transfert maintenant
A recommandé une cible de transfert maintenant
A recommandé une cible de transfert 7j
A observé un match 7j
A observé un match 7j
A observé un match 7j

Suivi en cours

184
Joueur Club Statut Capacité Confiance Observé Dernière observation Dernier vote
Dilan Godoy Vélez Actif 103 / 112 40% 1 16.08.2027 -
Agustín Ruberto River Plate Perdu 116 / 126 40% 1 16.08.2027 -
Pablo Suárez Rentistas Actif 97 / 104 40% 1 16.08.2027 -
Finn Jeltsch VfB Stuttgart Actif 141 / 146 40% 3 10.08.2027 -
Mattia Puzone Siracusa Actif 100 / 105 40% 1 10.08.2027 -
Jussef Nasrawe SV Ried Actif 105 / 108 40% 1 10.08.2027 -
Leny Yoro Monaco Actif 145 / 150 40% 5 20.07.2027 -
Karim Coulibaly RC Strasbourg Actif 124 / 128 40% 3 20.07.2027 -
Illaijh de Ruijter ADO Den Haag Actif 114 / 124 40% 3 20.07.2027 -
Noah Nartey Olympique Lyonnais Actif 137 / 142 40% 2 12.07.2027 -
Héctor Fort Real Sociedad Actif 139 / 145 40% 3 12.07.2027 -
Warren Zaïre-Emery Paris Saint-Germain Actif 156 / 162 40% 4 07.07.2027 -
Ibrahim Coulibaly Clermont Foot Actif 111 / 116 40% 2 07.07.2027 -
Milad Jahanbakhsh Rah Ahan Actif 103 / 105 40% 1 07.07.2027 -
Samuele di Benedetto Zurich Actif 113 / 122 40% 3 28.06.2027 -
Maeson King Blackpool Actif 108 / 114 40% 1 28.06.2027 -
Sascha Britschgi Catanzaro Actif 120 / 127 40% 1 23.06.2027 -
Givairo Read Feyenoord Actif 148 / 149 40% 1 23.06.2027 -
Ollie Scarles Chelsea Actif 135 / 136 40% 1 23.06.2027 -
Taichi Hara St. Pauli Rapport prêt 128 / 127 79% 1 21.06.2027 -
Christos Mouzakitis Hull City Actif 132 / 136 40% 3 14.06.2027 -
Lucas Bergvall Tottenham Actif 150 / 151 40% 2 14.06.2027 -
Sheraldo Becker Mainz 05 Rapport prêt 126 / 132 79% 1 14.06.2027 -
Dylan Moody Cambridge United Actif 110 / 119 40% 1 08.06.2027 -
Konstantinos Karetsas Borussia Dortmund Actif 127 / 134 79% 1 03.06.2027 Approuver
Facundo Torres AIK Actif 134 / 134 67% 1 01.06.2027 Approuver
Roberto Alvarado Porto Actif 139 / 139 66% 1 01.06.2027 Approuver
Adnan Carrasco FC Nantes Négociation 151 / 156 64% 1 01.06.2027 -
Paulinho Hamburger SV Actif 140 / 140 68% 1 01.06.2027 Approuver
Juan Diego Castillo Vitoria Guimaraes Actif 121 / 120 40% 1 01.06.2027 -
Senne Lammens Manchester United Actif 154 / 152 40% 1 01.06.2027 -
Rome-Jayden Owusu-Oduro Heerenveen Actif 137 / 137 40% 1 01.06.2027 -
Ramón Terrats Getafe Actif 140 / 143 40% 5 30.05.2027 -
Lucien Agoumé Sevilla Actif 146 / 143 40% 3 30.05.2027 -
Adrià Altimira Deportivo La Coruña Actif 136 / 133 40% 1 30.05.2027 -
Sergio Gómez Real Sociedad Actif 147 / 142 40% 4 29.05.2027 -
Quinten Timber Crystal Palace Actif 152 / 153 40% 5 29.05.2027 -
Boubacar Kamara Aston Villa Actif 168 / 163 40% 5 28.05.2027 -
Amadou Onana Newcastle United Actif 160 / 157 40% 3 28.05.2027 -
José Ángel Carmona Sevilla Actif 150 / 148 40% 3 28.05.2027 -
Jesús Areso Athletic Bilbao Actif 147 / 139 40% 8 27.05.2027 -
Roger François Udinese Actif 147 / 147 40% 4 27.05.2027 -
Bright Arrey-Mbi Braga Actif 134 / 137 40% 3 27.05.2027 -
Adam Wharton Crystal Palace Actif 154 / 153 40% 3 26.05.2027 -
Riquelme Thompson-Jones Shrewsbury Town Actif 99 / 114 40% 2 25.05.2027 -
Tuerto Sevilla Actif 156 / 152 40% 3 25.05.2027 -
Jacob Greaves Ipswich Town Actif 142 / 136 40% 6 25.05.2027 -
Gonçalo Oliveira Benfica Actif 109 / 114 40% 1 25.05.2027 -
Fran García Betis Actif 148 / 147 40% 6 23.05.2027 -
Yehor Yarmoliuk Brentford Actif 150 / 151 40% 2 23.05.2027 -
Jan Paul van Hecke Tottenham Actif 154 / 156 40% 1 22.05.2027 -
Pedro Porro Tottenham Actif 154 / 146 40% 5 21.05.2027 -
Tim Iroegbunam Hull City Actif 138 / 138 40% 1 20.05.2027 -
Jarell Quansah Bayer Leverkusen Actif 141 / 149 40% 3 19.05.2027 -
Arnau Martínez Valencia Actif 148 / 146 40% 2 19.05.2027 -
Nico González Newcastle United Actif 165 / 158 40% 1 19.05.2027 -
Guille Rosas Gijón Actif 143 / 137 40% 2 18.05.2027 -
Dani Vivian Athletic Bilbao Actif 152 / 153 40% 1 18.05.2027 -
Kees Smit AZ Actif 137 / 142 40% 2 17.05.2027 -
Carlos Romero Villarreal Actif 152 / 150 40% 4 17.05.2027 -
Lucas Høgsberg Paris Saint-Germain Actif 130 / 143 40% 1 17.05.2027 -
Philipp Treu SC Freiburg Actif 144 / 136 40% 3 15.05.2027 -
Elijah Dijkstra AZ Actif 126 / 127 40% 1 14.05.2027 -
Martim Cunha Porto Actif 96 / 106 40% 1 14.05.2027 -
Manu Koné AS Roma Actif 165 / 161 40% 2 13.05.2027 -
Tiago Santos LOSC Lille Actif 143 / 142 40% 3 11.05.2027 -
Logan Costa Villarreal Actif 144 / 144 40% 3 09.05.2027 -
Angelo Stiller VfB Stuttgart Actif 149 / 150 40% 2 09.05.2027 -
Nicolas Seiwald RB Leipzig Actif 145 / 149 40% 3 08.05.2027 -
Mats Wieffer Brighton Actif 152 / 145 40% 1 08.05.2027 -
Miguel Gutiérrez Bayer Leverkusen Actif 148 / 150 40% 5 07.05.2027 -
Tariq Lamptey Queens Park Rangers Actif 136 / 135 40% 2 07.05.2027 -
Omar El Hilali Espanyol Actif 154 / 147 40% 6 04.05.2027 -
Luiz Henrique VfB Stuttgart Actif 143 / 144 40% 3 02.05.2027 -
Josha Vagnoman VfB Stuttgart Actif 139 / 133 40% 3 02.05.2027 -
David Larrubia Málaga Actif 134 / 127 40% 1 02.05.2027 -
Emile Smith Rowe Fulham Actif 157 / 151 40% 1 30.04.2027 -
Chemsdine Talbi Sunderland Actif 138 / 149 40% 1 30.04.2027 -
Tyrell Malacia Derby County Actif 143 / 137 40% 2 27.04.2027 -
Lilian Brassier Eintracht Frankfurt Actif 135 / 140 40% 2 25.04.2027 -
André Wolverhampton Actif 148 / 141 40% 1 25.04.2027 -
James Garner Everton Actif 150 / 146 40% 6 24.04.2027 -
Antonio Blanco Alavés Actif 143 / 141 40% 1 24.04.2027 -
Adrien Truffert Bournemouth Actif 150 / 149 40% 3 23.04.2027 -
Óscar Mingueza Crystal Palace Actif 149 / 149 40% 2 21.04.2027 -
Moussa Diaby Bayer Leverkusen Actif 145 / 147 40% 4 21.04.2027 -
Georges Mikautadze FC Augsburg Actif 158 / 154 40% 3 21.04.2027 -
Daijiro Chirino Almería Actif 139 / 135 40% 2 21.04.2027 -
Wouter Burger TSG Hoffenheim Actif 149 / 143 40% 2 19.04.2027 -
Thulani Billiat Utrecht Actif 138 / 135 40% 4 18.04.2027 -
Linton Maina Köln Actif 133 / 129 40% 3 18.04.2027 -
Castello Lukeba RB Leipzig Actif 157 / 154 40% 1 15.04.2027 -
Javi Guerra Valencia Actif 148 / 146 40% 1 15.04.2027 -
Saman Taremi Padideh Actif 108 / 111 40% 2 09.04.2027 -
Kaishu Sano Mainz 05 Actif 142 / 146 40% 3 09.04.2027 -
Loïc Badé Bayer Leverkusen Actif 149 / 157 40% 2 09.04.2027 -
Yussif Saidu Zaragoza Actif 119 / 125 40% 1 09.04.2027 -
Julian Palacios Feyenoord Actif 149 / 153 40% 1 08.04.2027 -
Micky van de Ven Tottenham Actif 157 / 158 40% 1 06.04.2027 -
Kike Salas Sevilla Actif 145 / 147 40% 2 04.04.2027 -
Albert Sambi Lokonga Hamburger SV Actif 144 / 142 40% 1 03.04.2027 -
Aitor Paredes Athletic Bilbao Actif 152 / 147 40% 1 01.04.2027 -
Andrés Martín Racing Santander Actif 139 / 130 40% 1 01.04.2027 -
Farès Chaïbi Eintracht Frankfurt Actif 135 / 141 40% 1 29.03.2027 -
Ilaix Moriba Celta Actif 151 / 147 40% 1 27.03.2027 -
Caleb Yirenkyi Coventry City Actif 130 / 141 40% 2 26.03.2027 -
James Dornelly Peterborough United Actif 97 / 105 40% 1 26.03.2027 -
Jack Hinshelwood Brighton Actif 142 / 146 40% 1 26.03.2027 -
Vanderson Monaco Actif 147 / 139 40% 1 23.03.2027 -
Kevin Schade Brentford Actif 154 / 148 40% 2 20.03.2027 -
Carlos Álvarez Club America Actif 146 / 137 40% 1 20.03.2027 -
Reiss Nelson VfL Wolfsburg Actif 142 / 140 40% 3 15.03.2027 -
Kevin Fulham Actif 151 / 147 40% 2 15.03.2027 -
Louis Leroux FC Nantes Actif 124 / 131 40% 2 15.03.2027 -
Nico O'Reilly Manchester City Actif 152 / 160 40% 4 13.03.2027 -
Sam Curtis Swindon Town Actif 97 / 104 40% 2 12.03.2027 -
Taylan Bulut Basaksehir Actif 121 / 121 40% 6 10.03.2027 -
Thomas Alderweireld Dijon Actif 133 / 128 40% 3 09.03.2027 -
Yeremay Deportivo La Coruña Actif 145 / 144 40% 4 09.03.2027 -
Enzo Le Fée Sunderland Actif 139 / 140 40% 1 09.03.2027 -
Khvicha Kvaratskhelia Inter Actif 168 / 166 40% 2 08.03.2027 -
Julio Enciso Ipswich Town Actif 142 / 146 40% 1 08.03.2027 Plus d'infos
Loum Tchaouna Coventry City Actif 136 / 135 40% 2 06.03.2027 -
Christoph Baumgartner RB Leipzig Actif 146 / 154 40% 1 06.03.2027 -
Bilal El Khannouss VfB Stuttgart Actif 150 / 148 40% 3 05.03.2027 -
Finn Azaz Southampton Actif 131 / 130 40% 2 04.03.2027 -
Fodé Sylla Sion Actif 110 / 125 40% 3 03.03.2027 -
Pau Navarro Villarreal Actif 143 / 147 40% 1 03.03.2027 -
Joaquin Seys Club Brugge Actif 125 / 128 40% 2 02.03.2027 -
Malik Tillman Bayer Leverkusen Actif 146 / 156 40% 3 01.03.2027 -
Mikkel Damsgaard Brentford Actif 149 / 144 40% 1 01.03.2027 -
Osame Sahraoui LOSC Lille Actif 139 / 139 40% 3 25.02.2027 -
Luciano Valente Feyenoord Actif 144 / 138 40% 3 25.02.2027 -
Gaspar Gijón Actif 143 / 139 40% 1 24.02.2027 -
Diego Lainez Tigres Actif 128 / 134 40% 1 24.02.2027 -
Thiago Almada Fiorentina Actif 146 / 146 40% 2 22.02.2027 -
Carlos Vicente Udinese Actif 145 / 141 40% 2 21.02.2027 -
Roberto Fernández Braga Actif 142 / 143 40% 1 16.02.2027 -
Marquinhos Spartak Moscow Actif 130 / 128 40% 1 11.02.2027 -
Jordan Beyer Burnley Actif 140 / 137 40% 1 10.02.2027 -
Paul Nebel Mainz 05 Actif 147 / 141 40% 1 02.02.2027 -
Mathys Tel Stade Rennais Actif 148 / 147 40% 2 18.01.2027 -
Jorrel Hato Chelsea Actif 149 / 152 40% 1 18.01.2027 -
James Trafford Leeds United Actif 142 / 141 40% 1 31.12.2026 -
Lorenzo Palmisani Frosinone Actif 132 / 128 40% 1 31.12.2026 -
Tudor Mendel-Idowu Colchester United Actif 97 / 95 40% 2 30.12.2026 -
Jan Virgili Club Brugge Actif 128 / 138 40% 1 30.12.2026 -
Cyriaque Irié Borussia Mönchengladbach Actif 117 / 121 40% 1 30.12.2026 -
Othmane Maamma Watford Actif 121 / 126 40% 3 29.12.2026 -
Antoni Milambo Brentford Actif 144 / 140 40% 1 29.12.2026 -
Désiré Doué Paris Saint-Germain Actif 158 / 168 40% 3 28.12.2026 -
Sanel Šaljić Austria Wien Actif 122 / 124 40% 3 25.12.2026 -
Ethan Mbappé LOSC Lille Actif 132 / 140 40% 1 24.12.2026 -
Oscar Højlund Eintracht Frankfurt Actif 124 / 130 40% 2 23.12.2026 -
Jonas Harder Basel Actif 102 / 113 40% 1 23.12.2026 -
Can Uzun Eintracht Frankfurt Actif 142 / 149 40% 1 20.12.2026 -
Tim Drexler Red Bull Salzburg Actif 121 / 123 40% 6 19.12.2026 -
Matheus Gonçalves Al-Ahli Actif 133 / 126 40% 1 18.12.2026 -
Martin Wober Mattersburg Actif 92 / 107 40% 2 14.12.2026 -
Nacer Mignolet KV Oostende Actif 124 / 135 40% 1 11.12.2026 -
Noah Sadiki Sunderland Actif 145 / 146 40% 3 08.12.2026 -
Fabian Rossdorfer SV Ried Actif 104 / 108 40% 1 08.12.2026 -
El Hadji Malick Diouf Brentford Actif 140 / 144 40% 1 04.12.2026 -
Abdoulaye Kanté Mattersburg Actif 96 / 106 40% 2 03.12.2026 -
Arda Güler Real Madrid Actif 144 / 150 40% 2 03.12.2026 -
Samuel Marques Grasshopper Actif 103 / 112 40% 2 01.12.2026 -
Neil Volken Zurich Actif 99 / 105 40% 1 01.12.2026 -
Evan Eghosa SV Ried Actif 107 / 111 40% 1 27.11.2026 -
Malick Fofana Sunderland Actif 146 / 143 40% 2 24.11.2026 -
Reuell Walters Luton Town Actif 115 / 116 40% 1 17.11.2026 -
Roger Fernandes Al-Ittihad Actif 132 / 135 40% 1 15.11.2026 -
Leon Grgić Sturm Graz Actif 119 / 127 40% 1 15.11.2026 -
Furkan Demir Rapid Wien Actif 122 / 128 40% 2 14.11.2026 -
Luca Marino Swansea City Actif 99 / 108 40% 2 14.11.2026 -
Antonio Verinac St. Gallen Actif 98 / 103 40% 1 12.11.2026 -
Yusi Alavés Actif 130 / 128 40% 1 09.11.2026 -
Max Scholze Estrela da Amadora Actif 104 / 115 40% 1 02.11.2026 -
Jobe Bellingham Borussia Dortmund Actif 133 / 137 40% 1 11.10.2026 -
Badredine Bouanani Borussia Dortmund Actif 124 / 131 40% 1 09.10.2026 -
Marvin Akahomen Basel Actif 103 / 105 40% 1 05.10.2026 -
Rico Lewis Manchester City Actif 142 / 154 40% 1 05.10.2026 -
Mbekezeli Mbokazi Chicago Fire Actif 119 / 121 40% 1 05.10.2026 -
Bung Meng Freimann Luzern Actif 101 / 112 40% 1 20.08.2026 -
Diego Enríquez Sporting Cristal Actif 122 / 120 40% 1 01.08.2026 -